sensor_id;sensor_type;location;lat;lon;timestamp;temperature;humidity
1025;DHT22;501;48.214;11.350;2024-03-22T00:30:43;7.20;55.50
1025;DHT22;501;48.214;11.350;2024-03-22T00:33:09;7.20;56.10
1025;DHT22;501;48.214;11.350;2024-03-22T00:35:35;7.20;56.10
1025;DHT22;501;48.214;11.350;2024-03-22T00:38:00;7.20;56.20
1025;DHT22;501;48.214;11.350;2024-03-22T00:40:26;7.20;55.90
1025;DHT22;501;48.214;11.350;2024-03-22T00:42:51;7.10;56.00
1025;DHT22;501;48.214;11.350;2024-03-22T00:45:17;7.10;56.10
1025;DHT22;501;48.214;11.350;2024-03-22T00:47:43;7.10;56.10
1025;DHT22;501;48.214;11.350;2024-03-22T00:50:08;7.10;56.10
1025;DHT22;501;48.214;11.350;2024-03-22T00:52:34;7.00;56.00
1025;DHT22;501;48.214;11.350;2024-03-22T00:55:00;7.00;56.10
1025;DHT22;501;48.214;11.350;2024-03-22T00:57:25;7.00;56.40
1025;DHT22;501;48.214;11.350;2024-03-22T00:59:51;7.00;56.00
1025;DHT22;501;48.214;11.350;2024-03-22T01:30:45;6.60;56.60
1025;DHT22;501;48.214;11.350;2024-03-22T01:33:12;6.60;56.30
1025;DHT22;501;48.214;11.350;2024-03-22T01:35:38;6.60;55.70
1025;DHT22;501;48.214;11.350;2024-03-22T01:38:04;6.60;55.70
1025;DHT22;501;48.214;11.350;2024-03-22T01:40:29;6.60;55.60
1025;DHT22;501;48.214;11.350;2024-03-22T02:45:04;6.10;55.50
1025;DHT22;501;48.214;11.350;2024-03-22T02:47:30;6.00;56.10
1025;DHT22;501;48.214;11.350;2024-03-22T02:49:55;6.00;55.60
1025;DHT22;501;48.214;11.350;2024-03-22T02:57:41;6.00;55.10
1025;DHT22;501;48.214;11.350;2024-03-22T03:00:07;5.90;54.70
1025;DHT22;501;48.214;11.350;2024-03-22T03:02:32;5.90;54.30
1025;DHT22;501;48.214;11.350;2024-03-22T03:04:58;5.90;54.30
1025;DHT22;501;48.214;11.350;2024-03-22T03:07:24;5.90;54.20
1025;DHT22;501;48.214;11.350;2024-03-22T03:09:50;5.90;54.30
1025;DHT22;501;48.214;11.350;2024-03-22T03:12:16;5.80;54.10
1025;DHT22;501;48.214;11.350;2024-03-22T03:14:41;5.80;54.30
1025;DHT22;501;48.214;11.350;2024-03-22T03:17:10;5.80;54.80
1025;DHT22;501;48.214;11.350;2024-03-22T03:19:36;5.80;54.10
1025;DHT22;501;48.214;11.350;2024-03-22T03:22:02;5.80;54.20
1025;DHT22;501;48.214;11.350;2024-03-22T03:24:28;5.70;54.40
1025;DHT22;501;48.214;11.350;2024-03-22T03:26:53;5.70;54.40
1025;DHT22;501;48.214;11.350;2024-03-22T03:29:19;5.70;54.40
1025;DHT22;501;48.214;11.350;2024-03-22T04:33:25;5.70;57.30
1025;DHT22;501;48.214;11.350;2024-03-22T04:35:51;5.70;57.40
1025;DHT22;501;48.214;11.350;2024-03-22T04:38:17;5.60;57.20
1025;DHT22;501;48.214;11.350;2024-03-22T04:40:42;5.60;57.10
1025;DHT22;501;48.214;11.350;2024-03-22T04:43:08;5.60;57.50
1025;DHT22;501;48.214;11.350;2024-03-22T04:45:34;5.60;58.20
1025;DHT22;501;48.214;11.350;2024-03-22T04:48:03;5.50;58.00
1025;DHT22;501;48.214;11.350;2024-03-22T04:50:29;5.50;57.80
1025;DHT22;501;48.214;11.350;2024-03-22T05:30:03;5.50;61.50
1025;DHT22;501;48.214;11.350;2024-03-22T07:02:09;6.90;69.00
1025;DHT22;501;48.214;11.350;2024-03-22T07:04:35;7.00;68.70
1025;DHT22;501;48.214;11.350;2024-03-22T07:07:01;7.10;69.20
1025;DHT22;501;48.214;11.350;2024-03-22T07:09:27;7.20;69.90
1025;DHT22;501;48.214;11.350;2024-03-22T07:11:55;7.30;70.30
1025;DHT22;501;48.214;11.350;2024-03-22T07:14:20;7.40;70.20
1025;DHT22;501;48.214;11.350;2024-03-22T07:16:46;7.50;70.30
1025;DHT22;501;48.214;11.350;2024-03-22T07:19:12;7.60;70.30
1025;DHT22;501;48.214;11.350;2024-03-22T07:21:37;7.70;70.70
1025;DHT22;501;48.214;11.350;2024-03-22T07:24:04;7.80;70.50
1025;DHT22;501;48.214;11.350;2024-03-22T07:26:30;7.90;71.00
1025;DHT22;501;48.214;11.350;2024-03-22T07:28:56;8.00;71.40
1025;DHT22;501;48.214;11.350;2024-03-22T07:39:07;8.40;68.20
1025;DHT22;501;48.214;11.350;2024-03-22T07:41:34;8.60;66.90
1025;DHT22;501;48.214;11.350;2024-03-22T07:44:00;8.60;67.40
1025;DHT22;501;48.214;11.350;2024-03-22T07:46:26;8.80;66.00
1025;DHT22;501;48.214;11.350;2024-03-22T07:48:53;8.90;65.00
1025;DHT22;501;48.214;11.350;2024-03-22T08:01:40;9.50;57.00
1025;DHT22;501;48.214;11.350;2024-03-22T08:04:05;9.70;55.50
1025;DHT22;501;48.214;11.350;2024-03-22T08:06:31;9.80;54.50
1025;DHT22;501;48.214;11.350;2024-03-22T08:08:57;9.90;56.10
1025;DHT22;501;48.214;11.350;2024-03-22T08:13:58;10.20;52.40
1025;DHT22;501;48.214;11.350;2024-03-22T08:16:29;10.30;52.80
1025;DHT22;501;48.214;11.350;2024-03-22T08:18:54;10.50;50.40
1025;DHT22;501;48.214;11.350;2024-03-22T08:21:20;10.60;51.70
1025;DHT22;501;48.214;11.350;2024-03-22T08:23:46;10.80;52.50
1025;DHT22;501;48.214;11.350;2024-03-22T08:26:11;10.90;48.80
1025;DHT22;501;48.214;11.350;2024-03-22T08:28:37;11.00;49.90
1025;DHT22;501;48.214;11.350;2024-03-22T08:31:04;11.20;48.40
1025;DHT22;501;48.214;11.350;2024-03-22T08:33:30;11.20;46.90
1025;DHT22;501;48.214;11.350;2024-03-22T08:35:56;11.30;47.60
1025;DHT22;501;48.214;11.350;2024-03-22T08:38:22;11.40;47.70
1025;DHT22;501;48.214;11.350;2024-03-22T08:40:47;11.40;45.60
1025;DHT22;501;48.214;11.350;2024-03-22T08:43:13;11.50;47.70
1025;DHT22;501;48.214;11.350;2024-03-22T08:45:39;11.50;47.60
1025;DHT22;501;48.214;11.350;2024-03-22T08:48:05;11.60;46.80
1025;DHT22;501;48.214;11.350;2024-03-22T08:50:31;11.70;45.40
1025;DHT22;501;48.214;11.350;2024-03-22T08:55:47;11.90;46.10
1025;DHT22;501;48.214;11.350;2024-03-22T08:58:14;11.90;45.20
1025;DHT22;501;48.214;11.350;2024-03-22T09:00:41;11.90;43.90
1025;DHT22;501;48.214;11.350;2024-03-22T09:03:08;12.00;44.50
1025;DHT22;501;48.214;11.350;2024-03-22T09:05:34;12.00;46.40
1025;DHT22;501;48.214;11.350;2024-03-22T09:08:00;12.10;44.70
1025;DHT22;501;48.214;11.350;2024-03-22T09:10:26;12.20;44.40
1025;DHT22;501;48.214;11.350;2024-03-22T09:18:08;12.60;42.30
1025;DHT22;501;48.214;11.350;2024-03-22T09:20:34;12.70;42.60
1025;DHT22;501;48.214;11.350;2024-03-22T09:23:00;12.90;42.80
1025;DHT22;501;48.214;11.350;2024-03-22T09:25:26;13.00;42.60
1025;DHT22;501;48.214;11.350;2024-03-22T09:27:52;13.10;41.30
1025;DHT22;501;48.214;11.350;2024-03-22T09:30:18;13.30;40.50
1025;DHT22;501;48.214;11.350;2024-03-22T09:35:25;13.60;38.80
1025;DHT22;501;48.214;11.350;2024-03-22T09:37:52;13.70;37.80
1025;DHT22;501;48.214;11.350;2024-03-22T09:40:19;13.80;37.30
1025;DHT22;501;48.214;11.350;2024-03-22T09:42:48;13.90;37.60
1025;DHT22;501;48.214;11.350;2024-03-22T09:45:15;14.00;38.00
1025;DHT22;501;48.214;11.350;2024-03-22T09:47:44;14.10;37.80
1025;DHT22;501;48.214;11.350;2024-03-22T09:50:12;14.20;36.20
1025;DHT22;501;48.214;11.350;2024-03-22T09:55:24;14.40;36.30
1025;DHT22;501;48.214;11.350;2024-03-22T09:57:50;14.60;35.80
1025;DHT22;501;48.214;11.350;2024-03-22T10:00:18;14.70;35.30
1025;DHT22;501;48.214;11.350;2024-03-22T10:29:30;15.40;32.80
1025;DHT22;501;48.214;11.350;2024-03-22T10:53:25;15.90;32.90
1025;DHT22;501;48.214;11.350;2024-03-22T10:55:54;15.90;32.00
1025;DHT22;501;48.214;11.350;2024-03-22T10:58:24;16.00;30.90
1025;DHT22;501;48.214;11.350;2024-03-22T11:09:39;16.00;32.90
1025;DHT22;501;48.214;11.350;2024-03-22T11:22:48;16.30;30.70
1025;DHT22;501;48.214;11.350;2024-03-22T11:25:18;16.40;29.90
1025;DHT22;501;48.214;11.350;2024-03-22T11:27:46;16.50;29.00
1025;DHT22;501;48.214;11.350;2024-03-22T11:30:12;16.40;29.30
1025;DHT22;501;48.214;11.350;2024-03-22T11:44:37;16.40;29.90
1025;DHT22;501;48.214;11.350;2024-03-22T11:47:04;16.40;30.10
1025;DHT22;501;48.214;11.350;2024-03-22T11:49:30;16.50;29.10
1025;DHT22;501;48.214;11.350;2024-03-22T11:54:53;16.40;30.30
1025;DHT22;501;48.214;11.350;2024-03-22T11:57:23;16.40;29.20
1025;DHT22;501;48.214;11.350;2024-03-22T11:59:52;16.50;29.70
1025;DHT22;501;48.214;11.350;2024-03-22T12:02:24;16.60;29.30
1025;DHT22;501;48.214;11.350;2024-03-22T12:04:50;16.70;30.50
1025;DHT22;501;48.214;11.350;2024-03-22T12:07:16;16.90;29.30
1025;DHT22;501;48.214;11.350;2024-03-22T12:09:42;16.90;29.10
1025;DHT22;501;48.214;11.350;2024-03-22T12:12:11;16.90;29.40
1025;DHT22;501;48.214;11.350;2024-03-22T12:14:37;16.90;28.40
1025;DHT22;501;48.214;11.350;2024-03-22T12:17:04;16.90;29.40
1025;DHT22;501;48.214;11.350;2024-03-22T12:19:30;16.90;29.50
1025;DHT22;501;48.214;11.350;2024-03-22T12:21:56;17.00;30.50
1025;DHT22;501;48.214;11.350;2024-03-22T12:24:22;17.20;28.70
1025;DHT22;501;48.214;11.350;2024-03-22T12:26:48;17.20;28.70
1025;DHT22;501;48.214;11.350;2024-03-22T12:29:15;17.40;29.60
1025;DHT22;501;48.214;11.350;2024-03-22T12:31:41;17.50;28.10
1025;DHT22;501;48.214;11.350;2024-03-22T12:34:07;17.70;29.00
1025;DHT22;501;48.214;11.350;2024-03-22T12:36:32;17.80;29.20
1025;DHT22;501;48.214;11.350;2024-03-22T12:38:58;18.10;29.40
1025;DHT22;501;48.214;11.350;2024-03-22T12:41:25;18.30;27.50
1025;DHT22;501;48.214;11.350;2024-03-22T12:43:51;18.40;28.70
1025;DHT22;501;48.214;11.350;2024-03-22T12:46:16;18.70;29.30
1025;DHT22;501;48.214;11.350;2024-03-22T12:48:42;18.90;26.50
1025;DHT22;501;48.214;11.350;2024-03-22T12:51:08;19.10;28.30
1025;DHT22;501;48.214;11.350;2024-03-22T12:53:33;19.40;27.00
1025;DHT22;501;48.214;11.350;2024-03-22T12:55:59;19.60;26.90
1025;DHT22;501;48.214;11.350;2024-03-22T12:58:24;19.80;26.20
1025;DHT22;501;48.214;11.350;2024-03-22T13:00:50;20.10;26.40
1025;DHT22;501;48.214;11.350;2024-03-22T13:03:16;20.20;25.50
1025;DHT22;501;48.214;11.350;2024-03-22T13:05:42;20.40;25.70
1025;DHT22;501;48.214;11.350;2024-03-22T13:08:07;20.50;25.90
1025;DHT22;501;48.214;11.350;2024-03-22T13:10:33;20.60;25.10
1025;DHT22;501;48.214;11.350;2024-03-22T13:12:59;20.60;25.30
1025;DHT22;501;48.214;11.350;2024-03-22T13:15:25;20.60;24.00
1025;DHT22;501;48.214;11.350;2024-03-22T13:17:51;20.70;26.00
1025;DHT22;501;48.214;11.350;2024-03-22T13:20:18;20.80;26.20
1025;DHT22;501;48.214;11.350;2024-03-22T13:22:44;21.00;23.80
1025;DHT22;501;48.214;11.350;2024-03-22T13:25:10;21.10;25.20
1025;DHT22;501;48.214;11.350;2024-03-22T13:27:37;21.30;24.50
1025;DHT22;501;48.214;11.350;2024-03-22T13:30:06;21.50;25.00
1025;DHT22;501;48.214;11.350;2024-03-22T13:32:36;21.60;24.00
1025;DHT22;501;48.214;11.350;2024-03-22T13:35:02;21.70;23.90
1025;DHT22;501;48.214;11.350;2024-03-22T13:37:29;21.80;24.00
1025;DHT22;501;48.214;11.350;2024-03-22T13:39:54;22.00;23.10
1025;DHT22;501;48.214;11.350;2024-03-22T13:42:20;21.90;22.10
1025;DHT22;501;48.214;11.350;2024-03-22T13:44:46;22.00;22.50
1025;DHT22;501;48.214;11.350;2024-03-22T13:47:12;22.10;24.10
1025;DHT22;501;48.214;11.350;2024-03-22T13:49:39;22.30;24.20
1025;DHT22;501;48.214;11.350;2024-03-22T13:52:08;22.50;23.20
1025;DHT22;501;48.214;11.350;2024-03-22T13:54:34;22.60;21.70
1025;DHT22;501;48.214;11.350;2024-03-22T13:57:01;22.60;22.40
1025;DHT22;501;48.214;11.350;2024-03-22T13:59:27;22.50;22.40
1025;DHT22;501;48.214;11.350;2024-03-22T14:01:53;22.50;22.00
1025;DHT22;501;48.214;11.350;2024-03-22T14:04:19;22.30;23.00
1025;DHT22;501;48.214;11.350;2024-03-22T14:06:45;22.10;23.30
1025;DHT22;501;48.214;11.350;2024-03-22T14:09:11;22.10;23.90
1025;DHT22;501;48.214;11.350;2024-03-22T14:11:39;22.30;22.70
1025;DHT22;501;48.214;11.350;2024-03-22T14:14:05;22.60;23.20
1025;DHT22;501;48.214;11.350;2024-03-22T14:16:31;22.90;22.70
1025;DHT22;501;48.214;11.350;2024-03-22T14:18:57;23.20;22.70
1025;DHT22;501;48.214;11.350;2024-03-22T14:21:23;23.60;21.90
1025;DHT22;501;48.214;11.350;2024-03-22T14:23:49;24.00;21.60
1025;DHT22;501;48.214;11.350;2024-03-22T14:26:16;24.30;21.00
1025;DHT22;501;48.214;11.350;2024-03-22T14:28:43;24.50;21.30
1025;DHT22;501;48.214;11.350;2024-03-22T14:31:09;24.60;20.40
1025;DHT22;501;48.214;11.350;2024-03-22T14:33:36;24.70;19.10
1025;DHT22;501;48.214;11.350;2024-03-22T14:36:05;24.60;18.70
1025;DHT22;501;48.214;11.350;2024-03-22T14:38:32;24.30;18.50
1025;DHT22;501;48.214;11.350;2024-03-22T14:40:58;23.90;19.70
1025;DHT22;501;48.214;11.350;2024-03-22T14:43:25;23.40;18.80
1025;DHT22;501;48.214;11.350;2024-03-22T14:45:51;22.90;19.50
1025;DHT22;501;48.214;11.350;2024-03-22T14:48:21;22.60;20.40
1025;DHT22;501;48.214;11.350;2024-03-22T14:50:47;22.20;20.60
1025;DHT22;501;48.214;11.350;2024-03-22T14:53:13;22.00;20.80
1025;DHT22;501;48.214;11.350;2024-03-22T14:55:39;21.90;20.80
1025;DHT22;501;48.214;11.350;2024-03-22T14:58:06;21.90;20.70
1025;DHT22;501;48.214;11.350;2024-03-22T15:00:32;21.80;20.70
1025;DHT22;501;48.214;11.350;2024-03-22T15:02:59;21.80;21.40
1025;DHT22;501;48.214;11.350;2024-03-22T15:05:25;21.70;22.00
1025;DHT22;501;48.214;11.350;2024-03-22T15:07:50;21.70;21.30
1025;DHT22;501;48.214;11.350;2024-03-22T15:10:16;21.80;21.60
1025;DHT22;501;48.214;11.350;2024-03-22T15:12:42;21.90;21.40
1025;DHT22;501;48.214;11.350;2024-03-22T15:15:07;21.90;20.70
1025;DHT22;501;48.214;11.350;2024-03-22T15:17:33;22.00;21.30
1025;DHT22;501;48.214;11.350;2024-03-22T15:19:59;22.00;20.80
1025;DHT22;501;48.214;11.350;2024-03-22T15:22:25;21.90;20.00
1025;DHT22;501;48.214;11.350;2024-03-22T15:24:51;21.80;19.90
1025;DHT22;501;48.214;11.350;2024-03-22T15:27:18;21.90;20.70
1025;DHT22;501;48.214;11.350;2024-03-22T15:29:44;22.20;20.90
1025;DHT22;501;48.214;11.350;2024-03-22T15:32:10;22.60;20.90
1025;DHT22;501;48.214;11.350;2024-03-22T15:34:36;22.90;20.20
1025;DHT22;501;48.214;11.350;2024-03-22T15:37:02;22.90;19.40
1025;DHT22;501;48.214;11.350;2024-03-22T15:39:27;22.80;18.80
1025;DHT22;501;48.214;11.350;2024-03-22T15:41:53;22.70;18.10
1025;DHT22;501;48.214;11.350;2024-03-22T15:44:19;22.50;17.80
1025;DHT22;501;48.214;11.350;2024-03-22T15:46:44;22.30;18.10
1025;DHT22;501;48.214;11.350;2024-03-22T15:49:11;21.80;16.80
1025;DHT22;501;48.214;11.350;2024-03-22T15:51:36;21.40;17.90
1025;DHT22;501;48.214;11.350;2024-03-22T15:54:05;21.00;17.80
1025;DHT22;501;48.214;11.350;2024-03-22T15:56:31;20.70;17.10
1025;DHT22;501;48.214;11.350;2024-03-22T15:58:57;20.60;17.10
1025;DHT22;501;48.214;11.350;2024-03-22T16:01:23;20.50;17.30
1025;DHT22;501;48.214;11.350;2024-03-22T16:03:49;20.40;19.00
1025;DHT22;501;48.214;11.350;2024-03-22T16:06:15;20.40;18.70
1025;DHT22;501;48.214;11.350;2024-03-22T16:08:40;20.40;19.00
1025;DHT22;501;48.214;11.350;2024-03-22T16:11:06;20.40;18.80
1025;DHT22;501;48.214;11.350;2024-03-22T16:13:31;20.30;18.50
1025;DHT22;501;48.214;11.350;2024-03-22T16:15:57;20.20;16.80
1025;DHT22;501;48.214;11.350;2024-03-22T16:18:23;20.00;13.90
1025;DHT22;501;48.214;11.350;2024-03-22T16:20:48;19.90;14.30
1025;DHT22;501;48.214;11.350;2024-03-22T16:23:14;19.70;15.00
1025;DHT22;501;48.214;11.350;2024-03-22T16:25:39;19.60;14.00
1025;DHT22;501;48.214;11.350;2024-03-22T16:28:05;19.50;15.10
1025;DHT22;501;48.214;11.350;2024-03-22T16:30:31;19.30;14.00
1025;DHT22;501;48.214;11.350;2024-03-22T16:32:58;19.20;16.00
1025;DHT22;501;48.214;11.350;2024-03-22T16:35:23;19.00;15.40
1025;DHT22;501;48.214;11.350;2024-03-22T16:37:50;18.80;16.30
1025;DHT22;501;48.214;11.350;2024-03-22T16:40:19;18.50;16.00
1025;DHT22;501;48.214;11.350;2024-03-22T16:42:47;18.40;17.00
1025;DHT22;501;48.214;11.350;2024-03-22T16:45:13;18.20;16.80
1025;DHT22;501;48.214;11.350;2024-03-22T16:47:40;18.10;15.80
1025;DHT22;501;48.214;11.350;2024-03-22T16:50:07;17.90;17.00
1025;DHT22;501;48.214;11.350;2024-03-22T16:52:34;17.90;17.90
1025;DHT22;501;48.214;11.350;2024-03-22T16:55:00;17.80;17.30
1025;DHT22;501;48.214;11.350;2024-03-22T16:57:27;17.70;17.80
1025;DHT22;501;48.214;11.350;2024-03-22T16:59:53;17.60;18.50
1025;DHT22;501;48.214;11.350;2024-03-22T17:02:19;17.50;18.10
1025;DHT22;501;48.214;11.350;2024-03-22T17:04:45;17.40;18.90
1025;DHT22;501;48.214;11.350;2024-03-22T17:07:10;17.30;18.90
1025;DHT22;501;48.214;11.350;2024-03-22T17:09:37;17.30;20.40
1025;DHT22;501;48.214;11.350;2024-03-22T17:12:03;17.20;20.70
1025;DHT22;501;48.214;11.350;2024-03-22T17:14:31;17.20;19.90
1025;DHT22;501;48.214;11.350;2024-03-22T17:16:56;17.10;20.20
1025;DHT22;501;48.214;11.350;2024-03-22T17:19:23;17.00;20.90
1025;DHT22;501;48.214;11.350;2024-03-22T17:21:49;16.90;20.90
1025;DHT22;501;48.214;11.350;2024-03-22T17:24:14;16.90;21.00
1025;DHT22;501;48.214;11.350;2024-03-22T17:26:40;16.80;20.30
1025;DHT22;501;48.214;11.350;2024-03-22T17:29:07;16.70;20.90
1025;DHT22;501;48.214;11.350;2024-03-22T17:31:33;16.60;21.20
1025;DHT22;501;48.214;11.350;2024-03-22T17:33:58;16.50;22.00
1025;DHT22;501;48.214;11.350;2024-03-22T17:36:26;16.40;22.40
1025;DHT22;501;48.214;11.350;2024-03-22T17:38:52;16.40;22.00
1025;DHT22;501;48.214;11.350;2024-03-22T17:41:17;16.30;23.30
1025;DHT22;501;48.214;11.350;2024-03-22T17:43:46;16.20;23.20
1025;DHT22;501;48.214;11.350;2024-03-22T17:46:11;16.00;22.50
1025;DHT22;501;48.214;11.350;2024-03-22T17:48:37;15.90;22.10
1025;DHT22;501;48.214;11.350;2024-03-22T17:51:03;15.80;22.90
1025;DHT22;501;48.214;11.350;2024-03-22T17:53:29;15.70;24.00
1025;DHT22;501;48.214;11.350;2024-03-22T17:55:55;15.60;24.70
1025;DHT22;501;48.214;11.350;2024-03-22T17:58:20;15.50;24.80
1025;DHT22;501;48.214;11.350;2024-03-22T18:00:47;15.40;24.00
1025;DHT22;501;48.214;11.350;2024-03-22T18:03:13;15.30;24.60
1025;DHT22;501;48.214;11.350;2024-03-22T18:05:39;15.20;24.30
1025;DHT22;501;48.214;11.350;2024-03-22T18:08:05;15.10;24.80
1025;DHT22;501;48.214;11.350;2024-03-22T18:10:31;15.00;25.40
1025;DHT22;501;48.214;11.350;2024-03-22T18:15:41;14.70;26.60
1025;DHT22;501;48.214;11.350;2024-03-22T18:18:06;14.70;27.00
1025;DHT22;501;48.214;11.350;2024-03-22T18:20:32;14.60;26.90
1025;DHT22;501;48.214;11.350;2024-03-22T18:25:33;14.40;26.70
1025;DHT22;501;48.214;11.350;2024-03-22T18:27:59;14.40;26.70
1025;DHT22;501;48.214;11.350;2024-03-22T18:30:25;14.30;26.70
1025;DHT22;501;48.214;11.350;2024-03-22T18:32:50;14.30;27.50
1025;DHT22;501;48.214;11.350;2024-03-22T18:35:19;14.20;27.80
1025;DHT22;501;48.214;11.350;2024-03-22T18:37:45;14.20;27.80
1025;DHT22;501;48.214;11.350;2024-03-22T18:40:11;14.10;28.10
1025;DHT22;501;48.214;11.350;2024-03-22T18:45:40;14.00;27.70
1025;DHT22;501;48.214;11.350;2024-03-22T18:48:06;14.00;27.10
1025;DHT22;501;48.214;11.350;2024-03-22T18:50:32;13.90;26.40
1025;DHT22;501;48.214;11.350;2024-03-22T18:58:19;13.80;26.30
1025;DHT22;501;48.214;11.350;2024-03-22T19:00:45;13.70;27.50
1025;DHT22;501;48.214;11.350;2024-03-22T19:11:35;13.50;29.00
1025;DHT22;501;48.214;11.350;2024-03-22T19:14:00;13.50;29.40
1025;DHT22;501;48.214;11.350;2024-03-22T19:16:26;13.50;29.50
1025;DHT22;501;48.214;11.350;2024-03-22T19:18:52;13.50;29.50
1025;DHT22;501;48.214;11.350;2024-03-22T19:39:31;13.30;29.30
1025;DHT22;501;48.214;11.350;2024-03-22T19:49:50;13.20;29.50
1025;DHT22;501;48.214;11.350;2024-03-22T19:54:51;13.20;30.60
1025;DHT22;501;48.214;11.350;2024-03-22T19:57:17;13.20;31.20
1025;DHT22;501;48.214;11.350;2024-03-22T19:59:43;13.20;31.10
1025;DHT22;501;48.214;11.350;2024-03-22T20:02:08;13.20;30.90
1025;DHT22;501;48.214;11.350;2024-03-22T20:04:34;13.20;31.00
1025;DHT22;501;48.214;11.350;2024-03-22T20:07:00;13.10;31.30
1025;DHT22;501;48.214;11.350;2024-03-22T20:09:26;13.20;31.80
1025;DHT22;501;48.214;11.350;2024-03-22T20:11:52;13.20;32.20
1025;DHT22;501;48.214;11.350;2024-03-22T20:14:17;13.20;32.60
1025;DHT22;501;48.214;11.350;2024-03-22T20:16:45;13.10;32.80
1025;DHT22;501;48.214;11.350;2024-03-22T20:19:11;13.10;33.50
